Time;durP1;ratioP1;P1;durP2;ratioP2;P2;SDS_P1;SDS_P2;PMS_P1;PMS_P2;Temp;Humidity;BMP_temperature;BMP_pressure;BME280_temperature;BME280_humidity;BME280_pressure;Samples;Min_cycle;Max_cycle;Signal;HPM_P1;HPM_P2
2023/04/20 00:00:52;;;;;;;12.13;2.95;;;18.40;35.10;;;;;;20828489;28;20046;-56
2023/04/20 00:10:54;;;;;;;8.73;3.85;;;18.30;33.50;;;;;;20826493;28;20049;-57
2023/04/20 00:20:56;;;;;;;11.15;3.95;;;18.40;33.20;;;;;;20826161;28;20045;-58
2023/04/20 00:30:57;;;;;;;9.43;3.38;;;18.30;33.30;;;;;;20826191;28;20049;-57
2023/04/20 00:40:59;;;;;;;6.45;2.67;;;18.30;32.70;;;;;;20843657;28;20053;-56
2023/04/20 00:51:01;;;;;;;9.40;3.13;;;18.10;32.10;;;;;;20841766;28;20045;-55
2023/04/20 01:01:02;;;;;;;9.38;3.00;;;18.00;32.20;;;;;;20842518;28;20135;-57
2023/04/20 01:11:04;;;;;;;11.75;3.22;;;17.90;32.30;;;;;;20842663;28;20483;-56
2023/04/20 01:21:05;;;;;;;7.20;3.95;;;17.80;32.50;;;;;;20840733;28;20057;-55
2023/04/20 01:31:07;;;;;;;8.80;3.22;;;17.70;32.50;;;;;;20840905;28;20046;-57
2023/04/20 01:41:09;;;;;;;8.13;2.53;;;17.60;32.80;;;;;;20840555;28;20049;-58
2023/04/20 01:51:11;;;;;;;4.65;2.58;;;17.50;32.60;;;;;;20839172;28;20140;-57
2023/04/20 02:01:12;;;;;;;7.95;2.85;;;17.50;32.80;;;;;;20838982;28;20053;-57
2023/04/20 02:11:14;;;;;;;7.55;3.30;;;17.40;33.40;;;;;;20836538;28;20049;-56
2023/04/20 02:21:15;;;;;;;5.93;3.00;;;17.40;34.00;;;;;;20836151;28;20053;-57
2023/04/20 02:31:17;;;;;;;8.52;2.67;;;17.10;34.40;;;;;;20835915;28;20053;-56
2023/04/20 02:41:18;;;;;;;5.55;2.45;;;16.80;36.20;;;;;;20836486;28;20046;-57
2023/04/20 02:51:19;;;;;;;4.70;2.47;;;16.20;39.70;;;;;;20835012;28;20050;-56
2023/04/20 03:01:21;;;;;;;4.32;2.30;;;15.70;41.60;;;;;;20832998;28;20049;-57
2023/04/20 03:11:22;;;;;;;5.53;2.65;;;15.30;43.10;;;;;;20831871;28;20053;-57
2023/04/20 03:21:24;;;;;;;5.47;2.53;;;15.10;44.20;;;;;;20831184;28;20053;-57
2023/04/20 03:31:25;;;;;;;7.75;2.53;;;14.90;44.70;;;;;;20831689;28;20518;-56
2023/04/20 03:41:27;;;;;;;5.63;2.45;;;14.70;45.00;;;;;;20830963;28;20479;-56
2023/04/20 03:51:28;;;;;;;8.88;2.47;;;14.80;44.90;;;;;;20829491;28;20053;-56
2023/04/20 04:01:30;;;;;;;6.95;2.53;;;14.70;45.50;;;;;;20829296;28;20057;-57
2023/04/20 04:11:32;;;;;;;9.10;3.20;;;14.70;45.20;;;;;;20828925;28;20093;-56
2023/04/20 04:21:33;;;;;;;4.25;2.70;;;14.90;45.00;;;;;;20827708;28;20410;-57
2023/04/20 04:31:35;;;;;;;9.43;2.90;;;14.90;45.00;;;;;;20828672;28;20368;-57
2023/04/20 04:41:36;;;;;;;10.30;3.25;;;15.10;45.10;;;;;;20826620;28;20045;-57
2023/04/20 04:51:38;;;;;;;8.02;3.78;;;15.20;44.70;;;;;;20826003;28;20069;-57
2023/04/20 05:01:39;;;;;;;7.93;3.08;;;15.20;43.40;;;;;;20824338;28;20111;-57
2023/04/20 05:11:40;;;;;;;12.02;3.90;;;15.30;42.40;;;;;;20825539;28;20049;-57
2023/04/20 05:21:42;;;;;;;9.40;3.88;;;15.30;42.30;;;;;;20832797;28;20510;-56
2023/04/20 05:31:44;;;;;;;8.73;3.67;;;15.30;42.20;;;;;;20840298;28;20056;-57
2023/04/20 05:41:46;;;;;;;12.82;4.85;;;15.20;42.30;;;;;;20840226;28;20045;-56
2023/04/20 05:51:47;;;;;;;10.07;3.67;;;15.20;42.90;;;;;;20838949;28;20435;-57
2023/04/20 06:01:49;;;;;;;11.23;4.35;;;14.80;46.40;;;;;;20837917;28;20049;-58
2023/04/20 06:11:50;;;;;;;9.70;3.40;;;14.50;47.80;;;;;;20837247;28;20041;-57
2023/04/20 06:21:52;;;;;;;9.57;4.20;;;14.20;47.90;;;;;;20835422;28;20056;-58
2023/04/20 06:31:53;;;;;;;9.93;3.60;;;14.10;48.10;;;;;;20832629;28;20136;-57
2023/04/20 06:41:55;;;;;;;10.48;4.18;;;14.10;47.90;;;;;;20835549;28;20049;-57
2023/04/20 06:51:57;;;;;;;8.35;3.90;;;14.20;47.70;;;;;;20834102;28;20053;-57
2023/04/20 07:01:58;;;;;;;9.18;3.90;;;14.30;47.60;;;;;;20833645;28;20449;-57
2023/04/20 07:12:00;;;;;;;13.30;4.43;;;14.60;46.70;;;;;;20832446;28;20465;-57
2023/04/20 07:22:01;;;;;;;12.02;5.40;;;15.10;46.10;;;;;;20830882;28;20050;-57
2023/04/20 07:32:03;;;;;;;11.55;5.15;;;15.80;44.40;;;;;;20831740;28;20081;-58
2023/04/20 07:42:05;;;;;;;9.90;4.53;;;16.60;43.00;;;;;;20830119;28;20045;-58
2023/04/20 07:52:07;;;;;;;9.05;4.13;;;17.10;40.70;;;;;;20830370;28;20045;-58
2023/04/20 08:02:08;;;;;;;17.20;6.80;;;17.40;39.80;;;;;;20828644;28;20091;-58
2023/04/20 08:12:10;;;;;;;10.57;4.20;;;17.80;39.10;;;;;;20829381;28;20406;-59
2023/04/20 08:22:11;;;;;;;13.50;4.75;;;18.20;38.30;;;;;;20827415;28;20069;-58
2023/04/20 08:32:14;;;;;;;11.35;5.15;;;18.30;37.80;;;;;;20827243;28;20049;-58
2023/04/20 08:42:15;;;;;;;11.90;4.40;;;18.50;37.70;;;;;;20824120;28;20384;-57
2023/04/20 08:52:17;;;;;;;13.73;4.45;;;19.00;37.40;;;;;;20824659;28;20108;-58
2023/04/20 09:02:18;;;;;;;10.75;3.42;;;19.40;36.70;;;;;;20842586;28;20497;-57
2023/04/20 09:12:20;;;;;;;14.48;4.10;;;19.60;35.80;;;;;;20849246;28;20056;-59
2023/04/20 09:22:37;;;;;;;11.15;5.43;;;19.90;35.10;;;;;;20913138;28;20053;-58
2023/04/20 09:32:39;;;;;;;9.25;3.97;;;20.30;34.40;;;;;;20852155;28;20447;-58
2023/04/20 09:42:42;;;;;;;16.58;3.88;;;20.30;34.50;;;;;;20865854;28;20046;-56
2023/04/20 09:52:48;;;;;;;17.27;4.85;;;20.50;34.40;;;;;;20842473;28;20053;-59
2023/04/20 10:02:50;;;;;;;10.73;3.55;;;20.90;33.40;;;;;;20879889;28;20116;-57
2023/04/20 10:12:54;;;;;;;10.85;3.30;;;21.00;32.70;;;;;;20815915;28;20111;-56
2023/04/20 10:23:08;;;;;;;10.38;3.15;;;21.20;33.00;;;;;;20828245;28;20056;-60
2023/04/20 10:33:12;;;;;;;10.35;3.20;;;21.50;32.00;;;;;;20827312;28;20060;-59
2023/04/20 10:43:21;;;;;;;17.15;4.85;;;21.60;31.90;;;;;;20826627;28;20053;-59
2023/04/20 10:53:23;;;;;;;10.88;3.45;;;21.90;31.30;;;;;;20914252;28;20433;-58
2023/04/20 11:03:26;;;;;;;7.72;3.47;;;22.00;30.90;;;;;;20916353;28;20045;-59
2023/04/20 11:13:28;;;;;;;;;;;22.20;30.20;;;;;;20915694;28;20060;-59
2023/04/20 11:23:37;;;;;;;4.95;2.80;;;22.50;29.80;;;;;;20914100;28;19924;-58
2023/04/20 11:33:38;;;;;;;12.20;3.63;;;22.80;28.80;;;;;;20914395;28;20045;-59
2023/04/20 11:43:40;;;;;;;10.40;4.15;;;23.00;28.60;;;;;;20913379;28;20518;-58
2023/04/20 11:53:41;;;;;;;5.63;2.33;;;23.40;27.90;;;;;;20876846;28;20104;-58
2023/04/20 12:03:42;;;;;;;6.43;2.78;;;23.60;28.10;;;;;;20822416;28;20045;-58
2023/04/20 12:13:44;;;;;;;7.15;2.60;;;23.90;27.70;;;;;;20828599;28;20054;-60
2023/04/20 12:23:48;;;;;;;5.05;2.47;;;24.20;27.00;;;;;;20827970;28;20049;-56
2023/04/20 12:33:49;;;;;;;7.05;1.80;;;24.30;27.00;;;;;;20834789;28;20049;-57
2023/04/20 12:43:51;;;;;;;4.83;2.00;;;24.70;26.40;;;;;;20836664;28;20513;-58
2023/04/20 12:53:52;;;;;;;4.30;2.33;;;24.90;24.90;;;;;;20835719;28;20128;-57
2023/04/20 13:03:54;;;;;;;7.00;2.60;;;25.30;23.80;;;;;;20843651;28;20103;-58
2023/04/20 13:13:56;;;;;;;6.70;2.38;;;25.40;24.40;;;;;;20841327;28;20104;-57
2023/04/20 13:23:58;;;;;;;8.98;2.75;;;25.50;23.90;;;;;;20840053;28;20057;-56
2023/04/20 13:33:59;;;;;;;5.53;2.33;;;25.50;24.10;;;;;;20841056;28;20049;-58
2023/04/20 13:44:02;;;;;;;6.73;2.17;;;25.60;24.00;;;;;;20839846;28;20046;-56
2023/04/20 13:54:03;;;;;;;4.10;1.50;;;25.60;23.20;;;;;;20839834;28;20077;-57
2023/04/20 14:04:05;;;;;;;6.20;1.90;;;25.60;23.20;;;;;;20836925;28;20057;-56
2023/04/20 14:14:06;;;;;;;5.13;1.97;;;25.80;22.90;;;;;;20836979;28;20395;-58
2023/04/20 14:24:11;;;;;;;3.60;1.90;;;26.10;22.20;;;;;;20836797;28;20053;-57
2023/04/20 14:34:13;;;;;;;4.53;1.70;;;26.10;22.30;;;;;;20836772;28;20061;-57
2023/04/20 14:44:14;;;;;;;15.07;3.53;;;26.10;22.10;;;;;;20835574;28;20123;-59
2023/04/20 14:54:16;;;;;;;5.75;1.90;;;26.10;22.40;;;;;;20834396;28;20052;-57
2023/04/20 15:04:17;;;;;;;14.53;2.67;;;26.40;22.40;;;;;;20835010;28;20487;-58
2023/04/20 15:14:19;;;;;;;4.60;1.70;;;26.30;23.20;;;;;;20833089;28;20177;-57
2023/04/20 15:24:21;;;;;;;3.22;1.40;;;26.40;23.00;;;;;;20831971;28;20049;-57
2023/04/20 15:34:22;;;;;;;6.40;1.85;;;26.30;22.80;;;;;;20831572;28;20483;-61
2023/04/20 15:44:24;;;;;;;4.27;2.10;;;26.40;23.20;;;;;;20830127;28;20053;-61
2023/04/20 15:54:26;;;;;;;10.02;1.80;;;26.40;23.00;;;;;;20830136;28;20096;-60
2023/04/20 16:04:27;;;;;;;3.10;2.10;;;26.40;23.10;;;;;;20829876;28;20046;-62
2023/04/20 16:14:29;;;;;;;5.07;2.40;;;26.70;22.50;;;;;;20827971;28;20313;-60
2023/04/20 16:24:30;;;;;;;3.35;1.85;;;26.60;22.70;;;;;;20828656;28;20293;-60
2023/04/20 16:34:32;;;;;;;7.20;2.10;;;26.50;22.60;;;;;;20829576;28;20049;-63
2023/04/20 16:44:33;;;;;;;4.32;2.50;;;26.20;22.80;;;;;;20830287;28;20294;-64
2023/04/20 16:54:34;;;;;;;4.87;1.80;;;26.10;23.10;;;;;;20828094;28;20123;-62
2023/04/20 17:04:36;;;;;;;6.40;1.90;;;26.00;23.10;;;;;;20827566;28;20341;-61
2023/04/20 17:14:37;;;;;;;4.00;2.83;;;26.00;23.40;;;;;;20830158;28;20054;-62
2023/04/20 17:24:39;;;;;;;3.77;1.90;;;26.00;23.40;;;;;;20842990;28;20049;-62
2023/04/20 17:34:46;;;;;;;3.37;1.67;;;26.00;23.60;;;;;;20841934;28;20120;-61
2023/04/20 17:44:48;;;;;;;11.02;3.80;;;25.90;23.50;;;;;;20840416;28;20128;-60
2023/04/20 17:54:52;;;;;;;4.10;1.90;;;25.80;23.30;;;;;;20838929;28;20049;-61
2023/04/20 18:04:57;;;;;;;5.47;2.30;;;25.60;23.40;;;;;;20838962;28;20523;-61
2023/04/20 18:14:59;;;;;;;3.97;2.05;;;25.40;23.30;;;;;;20837348;28;20050;-60
2023/04/20 18:25:01;;;;;;;4.63;2.25;;;25.10;23.40;;;;;;20836872;28;20053;-58
2023/04/20 18:35:04;;;;;;;2.63;1.77;;;25.00;24.00;;;;;;20835997;28;20053;-56
2023/04/20 18:45:06;;;;;;;6.82;2.17;;;24.80;23.90;;;;;;20833638;28;20061;-57
2023/04/20 18:55:08;;;;;;;6.78;2.60;;;24.60;24.00;;;;;;20832604;28;20056;-57
2023/04/20 19:05:11;;;;;;;;;;;24.40;24.30;;;;;;20833813;28;20057;-55
2023/04/20 19:15:12;;;;;;;;;;;24.20;24.00;;;;;;20832736;28;19921;-56
2023/04/20 19:25:14;;;;;;;8.93;2.92;;;24.00;24.00;;;;;;20830410;28;19968;-56
2023/04/20 19:35:15;;;;;;;6.63;2.33;;;23.80;24.30;;;;;;20830499;28;20100;-56
2023/04/20 19:45:17;;;;;;;9.02;2.38;;;23.60;24.50;;;;;;20830921;28;20065;-56
2023/04/20 19:55:18;;;;;;;4.97;2.30;;;23.60;24.70;;;;;;20830184;28;20053;-56
2023/04/20 20:05:20;;;;;;;6.47;2.28;;;23.20;25.00;;;;;;20828891;28;20156;-56
2023/04/20 20:15:21;;;;;;;6.43;2.60;;;23.10;25.50;;;;;;20828885;28;20498;-57
2023/04/20 20:25:23;;;;;;;5.95;3.50;;;22.90;25.80;;;;;;20827729;28;20057;-57
2023/04/20 20:35:29;;;;;;;7.47;2.60;;;22.70;26.10;;;;;;20827077;28;20073;-57
2023/04/20 20:45:31;;;;;;;5.07;2.50;;;22.60;26.30;;;;;;20829754;28;20116;-56
2023/04/20 20:55:32;;;;;;;7.80;3.55;;;22.20;26.70;;;;;;20841067;28;20052;-57
2023/04/20 21:05:34;;;;;;;5.10;2.50;;;22.20;27.10;;;;;;20841819;28;20049;-58
2023/04/20 21:15:35;;;;;;;5.60;2.00;;;22.10;27.20;;;;;;20841409;28;20062;-56
2023/04/20 21:25:37;;;;;;;6.32;2.13;;;21.90;27.40;;;;;;20841997;28;20045;-56
2023/04/20 21:35:38;;;;;;;5.93;2.30;;;21.80;27.50;;;;;;20841932;28;20372;-57
2023/04/20 21:45:40;;;;;;;4.10;2.10;;;21.70;27.60;;;;;;20842307;28;20052;-56
2023/04/20 21:55:41;;;;;;;4.45;2.60;;;21.60;27.90;;;;;;20840366;28;20502;-57
2023/04/20 22:05:43;;;;;;;5.78;2.40;;;21.60;28.10;;;;;;20838289;28;20153;-56
2023/04/20 22:15:46;;;;;;;3.97;2.30;;;21.50;27.90;;;;;;20837649;28;20111;-56
2023/04/20 22:25:47;;;;;;;;;;;21.40;28.30;;;;;;20839095;28;20053;-55
2023/04/20 22:35:48;;;;;;;3.30;2.30;;;21.00;29.10;;;;;;20838392;28;19928;-57
2023/04/20 22:45:51;;;;;;;8.73;3.95;;;20.90;29.60;;;;;;20836233;28;20053;-56
2023/04/20 22:56:00;;;;;;;4.38;2.92;;;20.80;29.90;;;;;;20835911;28;20494;-56
2023/04/20 23:06:02;;;;;;;9.52;3.65;;;20.60;30.30;;;;;;20834529;28;20050;-56
2023/04/20 23:16:04;;;;;;;7.97;3.28;;;20.60;30.30;;;;;;20833173;28;20495;-55
2023/04/20 23:26:05;;;;;;;7.80;3.45;;;20.30;30.70;;;;;;20833549;28;20053;-55
2023/04/20 23:36:07;;;;;;;6.63;2.60;;;20.20;30.90;;;;;;20831438;28;20100;-55
2023/04/20 23:46:08;;;;;;;7.18;2.55;;;20.10;31.10;;;;;;20832060;28;20045;-55
2023/04/20 23:56:10;;;;;;;5.38;2.72;;;19.90;31.30;;;;;;20831163;28;20049;-56
